createdAt,value
2022-12-03T00:01:15.565Z,2.83
2022-12-03T00:03:42.276Z,2.50
2022-12-03T00:06:09.003Z,2.92
2022-12-03T00:08:35.569Z,2.53
2022-12-03T00:11:02.541Z,2.70
2022-12-03T00:13:29.209Z,2.67
2022-12-03T00:15:55.928Z,2.63
2022-12-03T00:18:22.536Z,2.70
2022-12-03T00:20:49.111Z,2.33
2022-12-03T00:23:15.680Z,2.95
2022-12-03T00:25:42.251Z,2.67
2022-12-03T00:28:09.205Z,2.58
2022-12-03T00:30:35.850Z,2.80
2022-12-03T00:33:02.441Z,2.87
2022-12-03T00:35:29.072Z,3.00
2022-12-03T00:37:56.026Z,3.30
2022-12-03T00:40:22.608Z,2.90
2022-12-03T00:42:49.211Z,2.67
2022-12-03T00:45:15.781Z,2.50
2022-12-03T00:47:42.360Z,2.63
2022-12-03T00:50:09.452Z,2.90
2022-12-03T00:52:36.065Z,2.50
2022-12-03T00:55:02.688Z,2.70
2022-12-03T00:57:29.349Z,2.90
2022-12-03T00:59:55.938Z,2.47
2022-12-03T01:02:22.646Z,3.03
2022-12-03T01:04:49.493Z,2.90
2022-12-03T01:07:16.150Z,3.03
2022-12-03T01:09:42.723Z,3.00
2022-12-03T01:12:09.320Z,2.67
2022-12-03T01:14:35.877Z,3.08
2022-12-03T01:17:02.423Z,2.65
2022-12-03T01:19:29.436Z,2.83
2022-12-03T01:21:56.028Z,2.80
2022-12-03T01:24:22.656Z,3.00
2022-12-03T01:26:49.248Z,3.30
2022-12-03T01:29:15.927Z,2.55
2022-12-03T01:32:00.969Z,2.88
2022-12-03T01:34:27.617Z,3.00
2022-12-03T01:36:54.545Z,2.80
2022-12-03T01:39:21.174Z,3.03
2022-12-03T01:41:50.016Z,2.70
2022-12-03T01:44:42.941Z,2.78
2022-12-03T01:47:22.617Z,2.67
2022-12-03T01:50:10.675Z,3.35
2022-12-03T01:52:39.363Z,3.25
2022-12-03T01:55:12.906Z,3.13
2022-12-03T01:57:52.500Z,3.25
2022-12-03T02:00:22.610Z,3.47
2022-12-03T02:02:53.487Z,3.95
2022-12-03T02:05:26.564Z,3.88
2022-12-03T02:07:54.030Z,3.80
2022-12-03T02:10:28.119Z,3.95
2022-12-03T02:13:01.061Z,3.60
2022-12-03T02:15:27.723Z,3.40
2022-12-03T02:17:55.315Z,3.47
2022-12-03T02:20:22.149Z,3.63
2022-12-03T02:23:02.137Z,3.47
2022-12-03T02:25:34.665Z,3.87
2022-12-03T02:28:03.288Z,4.15
2022-12-03T02:30:31.010Z,3.97
2022-12-03T02:32:58.832Z,4.18
2022-12-03T02:35:34.870Z,3.67
2022-12-03T02:38:08.355Z,4.20
2022-12-03T02:40:35.225Z,3.92
2022-12-03T02:43:03.453Z,4.43
2022-12-03T02:45:52.259Z,3.97
2022-12-03T02:48:40.123Z,4.22
2022-12-03T02:51:10.361Z,4.53
2022-12-03T02:53:47.399Z,3.95
2022-12-03T02:56:18.286Z,4.30
2022-12-03T02:58:48.512Z,4.30
2022-12-03T03:01:15.759Z,5.18
2022-12-03T03:03:44.627Z,4.73
2022-12-03T03:06:11.769Z,4.60
2022-12-03T03:08:40.274Z,5.03
2022-12-03T03:11:07.155Z,4.82
2022-12-03T03:13:35.533Z,4.20
2022-12-03T03:16:03.332Z,4.70
2022-12-03T03:18:30.020Z,4.88
2022-12-03T03:20:56.619Z,4.63
2022-12-03T03:23:24.561Z,4.70
2022-12-03T03:25:59.048Z,4.43
2022-12-03T03:28:26.590Z,4.37
2022-12-03T03:30:53.676Z,4.63
2022-12-03T03:33:20.576Z,4.88
2022-12-03T03:35:49.077Z,4.90
2022-12-03T03:38:19.346Z,4.95
2022-12-03T03:40:48.568Z,4.40
2022-12-03T03:43:15.256Z,4.65
2022-12-03T03:45:43.161Z,5.35
2022-12-03T03:48:10.653Z,5.57
2022-12-03T03:50:37.495Z,5.20
2022-12-03T03:53:05.156Z,4.90
2022-12-03T03:55:32.426Z,5.03
2022-12-03T03:57:59.517Z,5.13
2022-12-03T04:00:26.282Z,4.82
2022-12-03T04:02:53.870Z,4.85
2022-12-03T04:05:23.150Z,4.57
2022-12-03T04:07:49.981Z,4.97
2022-12-03T04:10:35.691Z,5.03
2022-12-03T04:13:02.484Z,4.30
2022-12-03T04:15:29.572Z,5.63
2022-12-03T04:18:15.116Z,5.07
2022-12-03T04:20:41.894Z,4.72
2022-12-03T04:23:08.877Z,5.43
2022-12-03T04:26:04.534Z,5.18
2022-12-03T04:28:49.458Z,5.70
2022-12-03T04:31:34.517Z,5.00
2022-12-03T04:34:33.723Z,5.63
2022-12-03T04:37:00.302Z,5.63
2022-12-03T04:39:26.969Z,5.47
2022-12-03T04:41:53.620Z,5.68
2022-12-03T04:44:38.409Z,5.37
2022-12-03T04:47:09.451Z,5.50
2022-12-03T04:49:38.380Z,5.32
2022-12-03T04:52:05.501Z,5.10
2022-12-03T04:54:32.192Z,5.50
2022-12-03T04:56:58.977Z,6.33
2022-12-03T04:59:25.604Z,5.10
2022-12-03T05:01:52.241Z,5.32
2022-12-03T05:04:18.956Z,5.00
2022-12-03T05:06:45.535Z,5.35
2022-12-03T05:09:12.576Z,5.47
2022-12-03T05:11:39.979Z,5.30
2022-12-03T05:14:06.664Z,6.05
2022-12-03T05:16:33.307Z,5.10
2022-12-03T05:19:01.057Z,5.75
2022-12-03T05:21:27.975Z,5.50
2022-12-03T05:23:54.703Z,5.75
2022-12-03T05:26:21.284Z,5.15
2022-12-03T05:28:47.979Z,5.13
2022-12-03T05:31:14.674Z,5.38
2022-12-03T05:33:44.355Z,5.73
2022-12-03T05:36:11.598Z,5.03
2022-12-03T05:38:38.609Z,5.57
2022-12-03T05:41:25.291Z,5.28
2022-12-03T05:43:51.908Z,5.88
2022-12-03T05:46:18.961Z,5.57
2022-12-03T05:48:45.896Z,5.18
2022-12-03T05:51:12.470Z,5.40
2022-12-03T05:53:39.092Z,5.43
2022-12-03T05:56:06.012Z,5.57
2022-12-03T05:58:32.602Z,5.13
2022-12-03T06:00:59.305Z,5.43
2022-12-03T06:03:26.186Z,5.28
2022-12-03T06:05:52.821Z,5.28
2022-12-03T06:08:19.469Z,5.63
2022-12-03T06:10:46.092Z,4.93
2022-12-03T06:13:12.703Z,4.85
2022-12-03T06:15:43.761Z,5.53
2022-12-03T06:18:11.324Z,5.70
2022-12-03T06:20:38.014Z,5.30
2022-12-03T06:23:04.604Z,5.60
2022-12-03T06:25:31.144Z,5.45
2022-12-03T06:27:57.739Z,5.82
2022-12-03T06:30:24.293Z,5.60
2022-12-03T06:32:50.838Z,5.18
2022-12-03T06:35:17.498Z,5.27
2022-12-03T06:37:44.073Z,5.88
2022-12-03T06:40:11.236Z,5.50
2022-12-03T06:42:37.793Z,5.60
2022-12-03T06:45:04.754Z,5.45
2022-12-03T06:47:31.304Z,5.40
2022-12-03T06:49:57.846Z,5.80
2022-12-03T06:52:24.409Z,5.40
2022-12-03T06:54:51.208Z,5.55
2022-12-03T06:57:17.982Z,6.00
2022-12-03T06:59:44.638Z,5.47
2022-12-03T07:02:12.620Z,5.55
2022-12-03T07:04:43.386Z,5.57
2022-12-03T07:07:12.667Z,5.68
2022-12-03T07:09:39.334Z,5.50
2022-12-03T07:12:06.081Z,5.43
2022-12-03T07:14:32.973Z,5.97
2022-12-03T07:16:59.532Z,5.43
2022-12-03T07:19:32.093Z,5.70
2022-12-03T07:21:59.395Z,6.15
2022-12-03T07:24:25.970Z,6.27
2022-12-03T07:26:52.663Z,6.25
2022-12-03T07:29:19.386Z,5.82
2022-12-03T07:31:46.184Z,5.40
2022-12-03T07:34:12.890Z,5.85
2022-12-03T07:36:39.437Z,5.80
2022-12-03T07:39:06.019Z,6.10
2022-12-03T07:41:32.614Z,6.15
2022-12-03T07:43:59.294Z,5.88
2022-12-03T07:46:26.123Z,5.82
2022-12-03T07:48:52.788Z,5.57
2022-12-03T07:51:19.559Z,6.40
2022-12-03T07:53:46.122Z,6.53
2022-12-03T07:56:12.791Z,6.28
2022-12-03T07:58:39.783Z,5.43
2022-12-03T08:01:06.611Z,6.13
2022-12-03T08:03:33.264Z,5.95
2022-12-03T08:05:59.893Z,6.53
2022-12-03T08:08:26.810Z,6.15
2022-12-03T08:10:53.433Z,6.15
2022-12-03T08:13:20.289Z,6.07
2022-12-03T08:15:47.300Z,5.65
2022-12-03T08:18:17.564Z,6.20
2022-12-03T08:20:46.263Z,5.55
2022-12-03T08:23:22.321Z,5.60
2022-12-03T08:25:50.421Z,5.60
2022-12-03T08:28:26.817Z,5.60
2022-12-03T08:31:20.139Z,6.10
2022-12-03T08:33:49.115Z,5.80
2022-12-03T08:36:29.261Z,6.50
2022-12-03T08:38:59.157Z,5.73
2022-12-03T08:41:45.178Z,6.03
2022-12-03T08:44:35.909Z,5.75
2022-12-03T08:47:19.309Z,6.05
2022-12-03T08:49:55.206Z,6.05
2022-12-03T08:52:26.752Z,5.70
2022-12-03T08:54:56.017Z,5.72
2022-12-03T08:57:28.643Z,5.78
2022-12-03T09:00:04.075Z,5.93
2022-12-03T09:02:34.279Z,5.97
2022-12-03T09:05:20.659Z,5.37
2022-12-03T09:07:47.619Z,6.28
2022-12-03T09:10:14.701Z,6.05
2022-12-03T09:12:41.288Z,5.53
2022-12-03T09:15:08.432Z,6.07
2022-12-03T09:17:35.007Z,5.40
2022-12-03T09:20:01.765Z,6.00
2022-12-03T09:22:28.501Z,5.90
2022-12-03T09:24:55.213Z,5.70
2022-12-03T09:27:22.862Z,5.68
2022-12-03T09:29:50.372Z,5.47
2022-12-03T09:32:18.805Z,6.07
2022-12-03T09:34:45.657Z,5.72
2022-12-03T09:37:12.270Z,5.68
2022-12-03T09:39:38.819Z,6.13
2022-12-03T09:42:05.680Z,5.67
2022-12-03T09:44:34.518Z,5.80
2022-12-03T09:47:03.293Z,6.05
2022-12-03T09:49:32.963Z,6.05
2022-12-03T09:52:03.008Z,5.75
2022-12-03T09:54:31.151Z,5.83
2022-12-03T09:57:00.899Z,5.75
2022-12-03T09:59:35.141Z,5.75
2022-12-03T10:02:03.271Z,5.75
2022-12-03T10:04:30.180Z,5.78
2022-12-03T10:06:58.961Z,5.97
2022-12-03T10:09:28.638Z,5.78
2022-12-03T10:11:59.973Z,6.03
2022-12-03T10:14:27.547Z,5.82
2022-12-03T10:16:54.626Z,5.65
2022-12-03T10:19:28.676Z,5.60
2022-12-03T10:21:55.795Z,5.60
2022-12-03T10:24:31.478Z,5.40
2022-12-03T10:27:04.437Z,5.05
2022-12-03T10:29:35.864Z,5.88
2022-12-03T10:32:06.007Z,5.90
2022-12-03T10:34:37.806Z,5.60
2022-12-03T10:37:19.098Z,5.10
2022-12-03T10:40:01.837Z,5.97
2022-12-03T10:42:33.705Z,6.50
2022-12-03T10:45:20.197Z,5.40
2022-12-03T10:48:13.157Z,6.20
2022-12-03T10:51:01.257Z,5.57
2022-12-03T10:53:31.593Z,5.50
2022-12-03T10:56:01.865Z,5.70
2022-12-03T10:58:33.818Z,5.20
2022-12-03T11:01:03.533Z,6.00
2022-12-03T11:03:34.084Z,5.53
2022-12-03T11:06:02.489Z,5.63
2022-12-03T11:08:35.381Z,5.40
2022-12-03T11:11:08.213Z,5.73
2022-12-03T11:13:34.761Z,5.80
2022-12-03T11:16:03.643Z,6.18
2022-12-03T11:18:36.378Z,5.63
2022-12-03T11:21:05.547Z,5.07
2022-12-03T11:23:44.284Z,5.67
2022-12-03T11:26:28.807Z,5.50
2022-12-03T11:28:57.354Z,5.75
2022-12-03T11:31:42.897Z,5.32
2022-12-03T11:34:18.658Z,5.95
2022-12-03T11:37:09.868Z,5.33
2022-12-03T11:39:48.250Z,5.20
2022-12-03T11:42:26.842Z,5.35
2022-12-03T11:45:05.535Z,5.93
2022-12-03T11:47:33.392Z,5.53
2022-12-03T11:50:00.232Z,5.53
2022-12-03T11:52:41.676Z,5.45
2022-12-03T11:55:28.293Z,6.15
2022-12-03T11:58:03.311Z,5.97
2022-12-03T12:00:30.698Z,5.40
2022-12-03T12:02:58.914Z,5.80
2022-12-03T12:05:33.778Z,5.97
2022-12-03T12:08:02.245Z,5.45
2022-12-03T12:10:48.218Z,5.63
2022-12-03T12:13:34.983Z,5.45
2022-12-03T12:16:04.280Z,6.07
2022-12-03T12:18:42.936Z,5.07
2022-12-03T12:21:43.578Z,5.18
2022-12-03T12:24:32.015Z,5.40
2022-12-03T12:27:05.661Z,5.38
2022-12-03T12:29:32.985Z,5.93
2022-12-03T12:32:23.184Z,5.38
2022-12-03T12:34:52.463Z,5.53
2022-12-03T12:37:36.909Z,5.30
2022-12-03T12:40:13.477Z,5.32
2022-12-03T12:42:50.070Z,5.37
2022-12-03T12:45:18.212Z,5.50
2022-12-03T12:47:57.535Z,5.40
2022-12-03T12:50:24.814Z,5.38
2022-12-03T12:53:01.198Z,5.60
2022-12-03T12:55:28.445Z,4.93
2022-12-03T12:58:00.091Z,5.18
2022-12-03T13:00:26.793Z,5.53
2022-12-03T13:03:05.413Z,5.65
2022-12-03T13:05:40.988Z,5.32
2022-12-03T13:08:31.891Z,5.37
2022-12-03T13:11:00.439Z,5.15
2022-12-03T13:13:43.582Z,5.53
2022-12-03T13:16:31.284Z,5.30
2022-12-03T13:19:01.442Z,4.93
2022-12-03T13:21:42.947Z,5.00
2022-12-03T13:24:37.556Z,5.70
2022-12-03T13:27:29.798Z,5.25
2022-12-03T13:30:00.801Z,4.85
2022-12-03T13:32:36.831Z,5.20
2022-12-03T13:35:07.961Z,5.13
2022-12-03T13:37:34.631Z,5.47
2022-12-03T13:40:12.957Z,4.78
2022-12-03T13:42:40.613Z,5.32
2022-12-03T13:45:16.655Z,4.68
2022-12-03T13:47:55.697Z,5.03
2022-12-03T13:50:31.748Z,5.53
2022-12-03T13:52:59.887Z,5.15
2022-12-03T13:55:29.346Z,5.05
2022-12-03T13:57:56.079Z,4.90
2022-12-03T14:00:23.260Z,5.70
2022-12-03T14:02:49.965Z,5.50
2022-12-03T14:05:16.689Z,5.18
2022-12-03T14:07:43.298Z,5.47
2022-12-03T14:10:12.016Z,5.38
2022-12-03T14:12:38.770Z,5.00
2022-12-03T14:15:06.706Z,5.25
2022-12-03T14:17:33.240Z,5.75
2022-12-03T14:20:03.779Z,5.20
2022-12-03T14:22:30.822Z,5.15
2022-12-03T14:24:57.660Z,5.57
2022-12-03T14:27:24.846Z,4.93
2022-12-03T14:29:52.039Z,5.40
2022-12-03T14:32:19.126Z,5.00
2022-12-03T14:34:45.762Z,4.93
2022-12-03T14:37:12.452Z,5.40
2022-12-03T14:39:39.303Z,4.97
2022-12-03T14:42:14.945Z,5.22
2022-12-03T14:44:51.793Z,5.13
2022-12-03T14:47:22.609Z,5.20
2022-12-03T14:49:49.838Z,5.23
2022-12-03T14:52:16.826Z,5.65
2022-12-03T14:54:43.829Z,5.25
2022-12-03T14:57:15.217Z,5.03
2022-12-03T14:59:42.804Z,5.07
2022-12-03T15:02:10.305Z,4.97
2022-12-03T15:04:37.917Z,5.18
2022-12-03T15:07:04.620Z,5.13
2022-12-03T15:09:31.341Z,5.60
2022-12-03T15:11:58.220Z,5.28
2022-12-03T15:14:24.766Z,5.30
2022-12-03T15:16:51.544Z,5.18
2022-12-03T15:19:18.214Z,5.20
2022-12-03T15:21:44.756Z,4.97
2022-12-03T15:24:11.339Z,4.38
2022-12-03T15:26:38.493Z,5.43
2022-12-03T15:29:05.149Z,4.97
2022-12-03T15:31:31.930Z,5.18
2022-12-03T15:33:58.667Z,5.13
2022-12-03T15:36:25.215Z,5.45
2022-12-03T15:38:51.784Z,5.00
2022-12-03T15:41:21.757Z,5.18
2022-12-03T15:43:48.962Z,5.45
2022-12-03T15:46:15.946Z,5.63
2022-12-03T15:48:43.014Z,5.13
2022-12-03T15:51:09.603Z,5.27
2022-12-03T15:53:36.184Z,5.18
2022-12-03T15:56:02.890Z,5.13
2022-12-03T15:58:29.434Z,5.43
2022-12-03T16:00:56.080Z,5.47
2022-12-03T16:03:22.769Z,5.27
2022-12-03T16:05:49.443Z,5.57
2022-12-03T16:08:16.100Z,5.45
2022-12-03T16:10:42.826Z,5.50
2022-12-03T16:13:09.412Z,5.78
2022-12-03T16:15:36.100Z,5.57
2022-12-03T16:18:02.772Z,5.32
2022-12-03T16:20:29.392Z,5.53
2022-12-03T16:22:55.964Z,5.20
2022-12-03T16:25:22.582Z,5.25
2022-12-03T16:27:49.279Z,5.57
2022-12-03T16:30:16.115Z,5.10
2022-12-03T16:32:42.691Z,5.80
2022-12-03T16:35:09.334Z,6.00
2022-12-03T16:37:35.946Z,5.45
2022-12-03T16:40:02.903Z,5.60
2022-12-03T16:42:29.627Z,5.95
2022-12-03T16:45:08.397Z,5.57
2022-12-03T16:47:35.372Z,5.70
2022-12-03T16:50:07.950Z,5.53
2022-12-03T16:52:35.611Z,5.57
2022-12-03T16:55:02.334Z,5.30
2022-12-03T16:57:33.297Z,5.70
2022-12-03T17:00:00.640Z,5.88
2022-12-03T17:02:27.791Z,5.68
2022-12-03T17:04:54.930Z,5.40
2022-12-03T17:07:21.597Z,5.78
2022-12-03T17:09:49.039Z,5.80
2022-12-03T17:12:15.617Z,5.78
2022-12-03T17:14:42.460Z,5.50
2022-12-03T17:17:09.103Z,5.83
2022-12-03T17:19:35.662Z,5.82
2022-12-03T17:22:02.246Z,6.05
2022-12-03T17:24:28.949Z,5.18
2022-12-03T17:26:55.588Z,5.40
2022-12-03T17:29:22.549Z,5.40
2022-12-03T17:31:49.290Z,5.53
2022-12-03T17:34:15.984Z,6.28
2022-12-03T17:36:42.529Z,6.00
2022-12-03T17:39:09.139Z,5.75
2022-12-03T17:41:35.756Z,5.47
2022-12-03T17:44:07.287Z,5.80
2022-12-03T17:46:36.473Z,5.50
2022-12-03T17:49:03.127Z,5.72
2022-12-03T17:51:29.738Z,5.85
2022-12-03T17:53:56.331Z,5.50
2022-12-03T17:56:22.892Z,6.03
2022-12-03T17:58:49.533Z,5.93
2022-12-03T18:01:16.581Z,5.90
2022-12-03T18:03:43.590Z,5.78
2022-12-03T18:06:10.282Z,5.67
2022-12-03T18:08:36.881Z,6.00
2022-12-03T18:11:03.478Z,6.07
2022-12-03T18:13:30.066Z,6.05
2022-12-03T18:15:56.721Z,5.90
2022-12-03T18:18:23.353Z,5.63
2022-12-03T18:20:50.149Z,6.13
2022-12-03T18:23:16.725Z,6.18
2022-12-03T18:25:43.345Z,5.93
2022-12-03T18:28:09.905Z,6.10
2022-12-03T18:30:36.703Z,6.10
2022-12-03T18:33:03.354Z,5.93
2022-12-03T18:35:30.068Z,6.60
2022-12-03T18:37:56.712Z,5.68
2022-12-03T18:40:24.638Z,6.07
2022-12-03T18:42:51.262Z,6.37
2022-12-03T18:45:18.184Z,5.75
2022-12-03T18:47:45.096Z,6.15
2022-12-03T18:50:12.187Z,6.53
2022-12-03T18:52:39.032Z,5.93
2022-12-03T18:55:06.754Z,5.80
2022-12-03T18:57:33.391Z,5.68
2022-12-03T19:00:01.419Z,6.05
2022-12-03T19:05:14.822Z,6.10
2022-12-03T19:07:43.282Z,6.53
2022-12-03T19:10:11.323Z,6.22
2022-12-03T19:12:38.725Z,6.25
2022-12-03T19:15:06.200Z,6.30
2022-12-03T19:17:32.770Z,7.05
2022-12-03T19:19:59.406Z,6.27
2022-12-03T19:22:25.951Z,6.35
2022-12-03T19:24:52.537Z,6.22
2022-12-03T19:27:19.513Z,6.45
2022-12-03T19:29:48.831Z,6.47
2022-12-03T19:32:15.839Z,6.37
2022-12-03T19:34:42.481Z,6.82
2022-12-03T19:37:09.062Z,7.05
2022-12-03T19:39:35.628Z,6.40
2022-12-03T19:42:02.203Z,6.63
2022-12-03T19:44:28.729Z,6.90
2022-12-03T19:46:56.849Z,6.80
2022-12-03T19:49:24.601Z,6.88
2022-12-03T19:51:51.277Z,7.00
2022-12-03T19:54:18.289Z,6.68
2022-12-03T19:56:45.167Z,6.50
2022-12-03T19:59:13.439Z,7.22
2022-12-03T20:01:42.991Z,6.50
2022-12-03T20:04:11.780Z,6.70
2022-12-03T20:06:39.091Z,7.30
2022-12-03T20:09:09.425Z,6.50
2022-12-03T20:11:36.209Z,7.07
2022-12-03T20:14:06.700Z,6.65
2022-12-03T20:16:34.068Z,6.93
2022-12-03T20:19:04.107Z,6.90
2022-12-03T20:21:32.582Z,6.37
2022-12-03T20:23:59.732Z,6.72
2022-12-03T20:26:27.104Z,6.80
2022-12-03T20:28:55.194Z,6.97
2022-12-03T20:31:23.713Z,6.72
2022-12-03T20:33:54.668Z,6.90
2022-12-03T20:36:25.259Z,6.68
2022-12-03T20:38:56.854Z,7.07
2022-12-03T20:41:23.870Z,6.95
2022-12-03T20:43:50.930Z,6.88
2022-12-03T20:46:36.823Z,6.73
2022-12-03T20:49:03.917Z,6.97
2022-12-03T20:51:31.647Z,7.05
2022-12-03T20:54:00.172Z,7.13
2022-12-03T20:56:32.702Z,7.03
2022-12-03T20:59:00.875Z,6.63
2022-12-03T21:01:28.458Z,7.63
2022-12-03T21:03:56.720Z,7.40
2022-12-03T21:06:26.012Z,7.03
2022-12-03T21:08:54.038Z,7.03
2022-12-03T21:11:26.841Z,7.27
2022-12-03T21:13:54.587Z,7.10
2022-12-03T21:16:45.616Z,7.47
2022-12-03T21:19:11.344Z,7.00
2022-12-03T21:21:37.925Z,7.90
2022-12-03T21:24:04.708Z,7.13
2022-12-03T21:26:31.371Z,7.50
2022-12-03T21:28:58.121Z,7.53
2022-12-03T21:31:26.652Z,7.60
2022-12-03T21:33:55.113Z,7.97
2022-12-03T21:36:22.712Z,7.77
2022-12-03T21:38:49.352Z,7.30
2022-12-03T21:41:16.016Z,7.97
2022-12-03T21:43:43.855Z,7.65
2022-12-03T21:47:12.137Z,8.38
2022-12-03T21:49:01.608Z,7.80
2022-12-03T21:51:28.208Z,7.95
2022-12-03T21:53:54.952Z,7.95
2022-12-03T21:56:21.666Z,8.00
2022-12-03T21:58:48.385Z,7.63
2022-12-03T22:01:21.658Z,8.10
2022-12-03T22:03:48.997Z,8.18
2022-12-03T22:06:16.153Z,7.53
2022-12-03T22:08:43.355Z,8.10
2022-12-03T22:11:13.355Z,7.65
2022-12-03T22:13:41.131Z,8.13
2022-12-03T22:16:10.765Z,8.13
2022-12-03T22:18:37.723Z,8.13
2022-12-03T22:21:06.815Z,8.60
2022-12-03T22:23:33.981Z,8.45
2022-12-03T22:26:03.040Z,8.47
2022-12-03T22:28:29.645Z,8.23
2022-12-03T22:30:56.294Z,8.68
2022-12-03T22:33:23.426Z,8.27
2022-12-03T22:35:57.093Z,8.60
2022-12-03T22:38:24.018Z,8.17
2022-12-03T22:40:50.820Z,8.18
2022-12-03T22:43:18.054Z,8.85
2022-12-03T22:45:44.721Z,8.27
2022-12-03T22:48:11.312Z,8.48
2022-12-03T22:50:43.419Z,8.57
2022-12-03T22:53:10.225Z,8.05
2022-12-03T22:55:37.011Z,8.73
2022-12-03T22:58:04.455Z,8.38
2022-12-03T23:00:37.357Z,8.20
2022-12-03T23:03:05.337Z,8.07
2022-12-03T23:05:38.647Z,9.00
2022-12-03T23:08:07.194Z,8.15
2022-12-03T23:10:38.714Z,9.13
2022-12-03T23:13:06.056Z,8.25
2022-12-03T23:15:32.995Z,8.80
2022-12-03T23:17:59.872Z,8.73
2022-12-03T23:20:27.565Z,8.73
2022-12-03T23:22:54.515Z,8.73
2022-12-03T23:25:21.611Z,9.25
2022-12-03T23:27:48.819Z,9.17
2022-12-03T23:30:16.340Z,8.63
2022-12-03T23:32:44.468Z,9.23
2022-12-03T23:35:12.348Z,8.88
2022-12-03T23:37:39.392Z,8.50
2022-12-03T23:40:06.712Z,8.60
2022-12-03T23:42:33.632Z,9.32
2022-12-03T23:45:00.196Z,9.13
2022-12-03T23:47:26.827Z,9.05
2022-12-03T23:49:53.698Z,9.10
2022-12-03T23:52:20.371Z,9.47
2022-12-03T23:54:47.039Z,8.70
2022-12-03T23:57:13.700Z,9.05
2022-12-03T23:59:42.075Z,8.93
